sensor_id;sensor_type;location;lat;lon;timestamp;pressure;altitude;pressure_sealevel;temperature;humidity
70781;BME280;59514;48.810;2.134;2023-04-09T00:02:17;100996.56;;;7.21;73.42
70781;BME280;59514;48.810;2.134;2023-04-09T00:04:42;100987.09;;;7.19;73.92
70781;BME280;59514;48.810;2.134;2023-04-09T00:07:08;100983.22;;;7.21;72.91
70781;BME280;59514;48.810;2.134;2023-04-09T00:09:33;100980.91;;;7.18;72.62
70781;BME280;59514;48.810;2.134;2023-04-09T00:11:58;100975.56;;;7.18;73.36
70781;BME280;59514;48.810;2.134;2023-04-09T00:14:24;100973.19;;;7.23;72.58
70781;BME280;59514;48.810;2.134;2023-04-09T00:16:49;100974.66;;;7.26;72.65
70781;BME280;59514;48.810;2.134;2023-04-09T00:19:15;100979.41;;;6.94;82.27
70781;BME280;59514;48.810;2.134;2023-04-09T00:21:40;100977.31;;;6.75;77.86
70781;BME280;59514;48.810;2.134;2023-04-09T00:24:06;100971.69;;;6.70;79.35
70781;BME280;59514;48.810;2.134;2023-04-09T00:26:31;64443.81;;;-141.13;100.00
70781;BME280;59514;48.810;2.134;2023-04-09T00:28:56;64443.81;;;-141.13;100.00
70781;BME280;59514;48.810;2.134;2023-04-09T00:31:22;64443.81;;;-141.13;100.00
70781;BME280;59514;48.810;2.134;2023-04-09T00:33:47;64443.81;;;-141.13;100.00
70781;BME280;59514;48.810;2.134;2023-04-09T00:36:13;64443.81;;;-141.13;100.00
70781;BME280;59514;48.810;2.134;2023-04-09T00:38:38;64443.81;;;-141.13;100.00
70781;BME280;59514;48.810;2.134;2023-04-09T00:41:03;64443.81;;;-141.13;100.00
70781;BME280;59514;48.810;2.134;2023-04-09T00:43:29;64443.81;;;-141.13;100.00
70781;BME280;59514;48.810;2.134;2023-04-09T00:45:54;64443.81;;;-141.13;100.00
70781;BME280;59514;48.810;2.134;2023-04-09T00:48:20;64443.81;;;-141.13;100.00
70781;BME280;59514;48.810;2.134;2023-04-09T00:50:45;64443.81;;;-141.13;100.00
70781;BME280;59514;48.810;2.134;2023-04-09T00:53:11;64443.81;;;-141.13;100.00
70781;BME280;59514;48.810;2.134;2023-04-09T00:55:39;64443.81;;;-141.13;100.00
70781;BME280;59514;48.810;2.134;2023-04-09T00:58:05;64443.81;;;-141.13;100.00
70781;BME280;59514;48.810;2.134;2023-04-09T01:00:31;64443.81;;;-141.13;100.00
70781;BME280;59514;48.810;2.134;2023-04-09T01:02:56;64443.81;;;-141.13;100.00
70781;BME280;59514;48.810;2.134;2023-04-09T01:06:11;64443.81;;;-141.13;100.00
70781;BME280;59514;48.810;2.134;2023-04-09T01:08:37;64443.81;;;-141.13;100.00
70781;BME280;59514;48.810;2.134;2023-04-09T01:14:00;64443.81;;;-141.13;100.00
70781;BME280;59514;48.810;2.134;2023-04-09T01:16:31;64443.81;;;-141.13;100.00
70781;BME280;59514;48.810;2.134;2023-04-09T01:19:45;64443.81;;;-141.13;100.00
70781;BME280;59514;48.810;2.134;2023-04-09T01:21:50;64443.81;;;-141.13;100.00
70781;BME280;59514;48.810;2.134;2023-04-09T01:27:05;64443.81;;;-141.13;100.00
70781;BME280;59514;48.810;2.134;2023-04-09T01:29:34;64443.81;;;-141.13;100.00
70781;BME280;59514;48.810;2.134;2023-04-09T01:32:03;64443.81;;;-141.13;100.00
70781;BME280;59514;48.810;2.134;2023-04-09T01:34:31;64443.81;;;-141.13;100.00
70781;BME280;59514;48.810;2.134;2023-04-09T01:36:58;64443.81;;;-141.13;100.00
70781;BME280;59514;48.810;2.134;2023-04-09T01:39:25;64443.81;;;-141.13;100.00
70781;BME280;59514;48.810;2.134;2023-04-09T01:41:51;64443.81;;;-141.13;100.00
70781;BME280;59514;48.810;2.134;2023-04-09T01:44:18;64443.81;;;-141.13;100.00
70781;BME280;59514;48.810;2.134;2023-04-09T01:46:46;64443.81;;;-141.13;100.00
70781;BME280;59514;48.810;2.134;2023-04-09T01:49:12;64443.81;;;-141.13;100.00
70781;BME280;59514;48.810;2.134;2023-04-09T01:51:39;64443.81;;;-141.13;100.00
70781;BME280;59514;48.810;2.134;2023-04-09T01:54:04;64443.81;;;-141.13;100.00
70781;BME280;59514;48.810;2.134;2023-04-09T01:56:40;64443.81;;;-141.13;100.00
70781;BME280;59514;48.810;2.134;2023-04-09T01:59:05;64443.81;;;-141.13;100.00
70781;BME280;59514;48.810;2.134;2023-04-09T02:01:38;64443.81;;;-141.13;100.00
70781;BME280;59514;48.810;2.134;2023-04-09T02:04:09;64443.81;;;-141.13;100.00
70781;BME280;59514;48.810;2.134;2023-04-09T02:06:57;64443.81;;;-141.13;100.00
70781;BME280;59514;48.810;2.134;2023-04-09T02:09:26;64443.81;;;-141.13;100.00
70781;BME280;59514;48.810;2.134;2023-04-09T02:11:52;64443.81;;;-141.13;100.00
70781;BME280;59514;48.810;2.134;2023-04-09T02:14:22;64443.81;;;-141.13;100.00
70781;BME280;59514;48.810;2.134;2023-04-09T02:16:49;64443.81;;;-141.13;100.00
70781;BME280;59514;48.810;2.134;2023-04-09T02:19:14;64443.81;;;-141.13;100.00
70781;BME280;59514;48.810;2.134;2023-04-09T02:21:40;64443.81;;;-141.13;100.00
70781;BME280;59514;48.810;2.134;2023-04-09T02:24:05;64443.81;;;-141.13;100.00
70781;BME280;59514;48.810;2.134;2023-04-09T02:26:30;64443.81;;;-141.13;100.00
70781;BME280;59514;48.810;2.134;2023-04-09T02:28:56;64443.81;;;-141.13;100.00
70781;BME280;59514;48.810;2.134;2023-04-09T02:31:21;64443.81;;;-141.13;100.00
70781;BME280;59514;48.810;2.134;2023-04-09T02:33:46;64443.81;;;-141.13;100.00
70781;BME280;59514;48.810;2.134;2023-04-09T02:36:12;64443.81;;;-141.13;100.00
70781;BME280;59514;48.810;2.134;2023-04-09T02:38:40;64443.81;;;-141.13;100.00
70781;BME280;59514;48.810;2.134;2023-04-09T02:41:06;64443.81;;;-141.13;100.00
70781;BME280;59514;48.810;2.134;2023-04-09T02:43:31;64443.81;;;-141.13;100.00
70781;BME280;59514;48.810;2.134;2023-04-09T02:45:57;64443.81;;;-141.13;100.00
70781;BME280;59514;48.810;2.134;2023-04-09T02:48:22;64443.81;;;-141.13;100.00
70781;BME280;59514;48.810;2.134;2023-04-09T02:50:47;64443.81;;;-141.13;100.00
70781;BME280;59514;48.810;2.134;2023-04-09T02:53:12;64443.81;;;-141.13;100.00
70781;BME280;59514;48.810;2.134;2023-04-09T02:55:38;64443.81;;;-141.13;100.00
70781;BME280;59514;48.810;2.134;2023-04-09T02:58:03;64443.81;;;-141.13;100.00
70781;BME280;59514;48.810;2.134;2023-04-09T03:00:28;64443.81;;;-141.13;100.00
70781;BME280;59514;48.810;2.134;2023-04-09T03:02:54;64443.81;;;-141.13;100.00
70781;BME280;59514;48.810;2.134;2023-04-09T03:05:19;64443.81;;;-141.13;100.00
70781;BME280;59514;48.810;2.134;2023-04-09T03:07:45;64443.81;;;-141.13;100.00
70781;BME280;59514;48.810;2.134;2023-04-09T03:10:11;64443.81;;;-141.13;100.00
70781;BME280;59514;48.810;2.134;2023-04-09T03:12:36;64443.81;;;-141.13;100.00
70781;BME280;59514;48.810;2.134;2023-04-09T03:15:02;64443.81;;;-141.13;100.00
70781;BME280;59514;48.810;2.134;2023-04-09T03:17:28;64443.81;;;-141.13;100.00
70781;BME280;59514;48.810;2.134;2023-04-09T03:19:56;64443.81;;;-141.13;100.00
70781;BME280;59514;48.810;2.134;2023-04-09T03:22:21;64443.81;;;-141.13;100.00
70781;BME280;59514;48.810;2.134;2023-04-09T03:24:46;64443.81;;;-141.13;100.00
70781;BME280;59514;48.810;2.134;2023-04-09T03:27:12;64443.81;;;-141.13;100.00
70781;BME280;59514;48.810;2.134;2023-04-09T03:29:37;64443.81;;;-141.13;100.00
70781;BME280;59514;48.810;2.134;2023-04-09T03:32:02;64443.81;;;-141.13;100.00
70781;BME280;59514;48.810;2.134;2023-04-09T03:34:28;64443.81;;;-141.13;100.00
70781;BME280;59514;48.810;2.134;2023-04-09T03:36:53;64443.81;;;-141.13;100.00
70781;BME280;59514;48.810;2.134;2023-04-09T03:39:18;64443.81;;;-141.13;100.00
70781;BME280;59514;48.810;2.134;2023-04-09T03:41:44;64443.81;;;-141.13;100.00
70781;BME280;59514;48.810;2.134;2023-04-09T03:44:09;64443.81;;;-141.13;100.00
70781;BME280;59514;48.810;2.134;2023-04-09T03:46:34;64443.81;;;-141.13;100.00
70781;BME280;59514;48.810;2.134;2023-04-09T03:49:00;64443.81;;;-141.13;100.00
70781;BME280;59514;48.810;2.134;2023-04-09T03:51:25;64443.81;;;-141.13;100.00
70781;BME280;59514;48.810;2.134;2023-04-09T03:53:51;64443.81;;;-141.13;100.00
70781;BME280;59514;48.810;2.134;2023-04-09T03:56:16;64443.81;;;-141.13;100.00
70781;BME280;59514;48.810;2.134;2023-04-09T03:58:42;64443.81;;;-141.13;100.00
70781;BME280;59514;48.810;2.134;2023-04-09T04:01:07;64443.81;;;-141.13;100.00
70781;BME280;59514;48.810;2.134;2023-04-09T04:03:32;64443.81;;;-141.13;100.00
70781;BME280;59514;48.810;2.134;2023-04-09T04:06:02;64443.81;;;-141.13;100.00
70781;BME280;59514;48.810;2.134;2023-04-09T04:08:27;64443.81;;;-141.13;100.00
70781;BME280;59514;48.810;2.134;2023-04-09T04:10:53;64443.81;;;-141.13;100.00
70781;BME280;59514;48.810;2.134;2023-04-09T04:13:18;64443.81;;;-141.13;100.00
70781;BME280;59514;48.810;2.134;2023-04-09T04:15:44;64443.81;;;-141.13;100.00
70781;BME280;59514;48.810;2.134;2023-04-09T04:18:09;64443.81;;;-141.13;100.00
70781;BME280;59514;48.810;2.134;2023-04-09T04:20:35;64443.81;;;-141.13;100.00
70781;BME280;59514;48.810;2.134;2023-04-09T04:23:01;64443.81;;;-141.13;100.00
70781;BME280;59514;48.810;2.134;2023-04-09T04:25:27;64443.81;;;-141.13;100.00
70781;BME280;59514;48.810;2.134;2023-04-09T04:27:52;64443.81;;;-141.13;100.00
70781;BME280;59514;48.810;2.134;2023-04-09T04:30:19;64443.81;;;-141.13;100.00
70781;BME280;59514;48.810;2.134;2023-04-09T04:32:44;64443.81;;;-141.13;100.00
70781;BME280;59514;48.810;2.134;2023-04-09T04:35:10;64443.81;;;-141.13;100.00
70781;BME280;59514;48.810;2.134;2023-04-09T04:37:35;64443.81;;;-141.13;100.00
70781;BME280;59514;48.810;2.134;2023-04-09T04:40:01;64443.81;;;-141.13;100.00
70781;BME280;59514;48.810;2.134;2023-04-09T04:42:26;64443.81;;;-141.13;100.00
70781;BME280;59514;48.810;2.134;2023-04-09T04:44:52;64443.81;;;-141.13;100.00
70781;BME280;59514;48.810;2.134;2023-04-09T04:47:17;64443.81;;;-141.13;100.00
70781;BME280;59514;48.810;2.134;2023-04-09T04:49:43;64443.81;;;-141.13;100.00
70781;BME280;59514;48.810;2.134;2023-04-09T04:52:09;64443.81;;;-141.13;100.00
70781;BME280;59514;48.810;2.134;2023-04-09T04:54:34;64443.81;;;-141.13;100.00
70781;BME280;59514;48.810;2.134;2023-04-09T04:56:59;64443.81;;;-141.13;100.00
70781;BME280;59514;48.810;2.134;2023-04-09T04:59:25;64443.81;;;-141.13;100.00
70781;BME280;59514;48.810;2.134;2023-04-09T05:01:50;64443.81;;;-141.13;100.00
70781;BME280;59514;48.810;2.134;2023-04-09T05:04:16;64443.81;;;-141.13;100.00
70781;BME280;59514;48.810;2.134;2023-04-09T05:06:41;64443.81;;;-141.13;100.00
70781;BME280;59514;48.810;2.134;2023-04-09T05:09:06;64443.81;;;-141.13;100.00
70781;BME280;59514;48.810;2.134;2023-04-09T05:11:32;64443.81;;;-141.13;100.00
70781;BME280;59514;48.810;2.134;2023-04-09T05:13:57;64443.81;;;-141.13;100.00
70781;BME280;59514;48.810;2.134;2023-04-09T05:16:22;64443.81;;;-141.13;100.00
70781;BME280;59514;48.810;2.134;2023-04-09T05:18:47;64443.81;;;-141.13;100.00
70781;BME280;59514;48.810;2.134;2023-04-09T05:21:13;64443.81;;;-141.13;100.00
70781;BME280;59514;48.810;2.134;2023-04-09T05:23:38;64443.81;;;-141.13;100.00
70781;BME280;59514;48.810;2.134;2023-04-09T05:26:03;64443.81;;;-141.13;100.00
70781;BME280;59514;48.810;2.134;2023-04-09T05:28:29;64443.81;;;-141.13;100.00
70781;BME280;59514;48.810;2.134;2023-04-09T05:30:54;64443.81;;;-141.13;100.00
70781;BME280;59514;48.810;2.134;2023-04-09T05:33:20;64443.81;;;-141.13;100.00
70781;BME280;59514;48.810;2.134;2023-04-09T05:35:45;64443.81;;;-141.13;100.00
70781;BME280;59514;48.810;2.134;2023-04-09T05:38:11;64443.81;;;-141.13;100.00
70781;BME280;59514;48.810;2.134;2023-04-09T05:40:37;64443.81;;;-141.13;100.00
70781;BME280;59514;48.810;2.134;2023-04-09T05:43:03;64443.81;;;-141.13;100.00
70781;BME280;59514;48.810;2.134;2023-04-09T05:45:28;64443.81;;;-141.13;100.00
70781;BME280;59514;48.810;2.134;2023-04-09T05:47:53;64443.81;;;-141.13;100.00
70781;BME280;59514;48.810;2.134;2023-04-09T05:50:19;64443.81;;;-141.13;100.00
70781;BME280;59514;48.810;2.134;2023-04-09T05:52:45;64443.81;;;-141.13;100.00
70781;BME280;59514;48.810;2.134;2023-04-09T05:55:10;64443.81;;;-141.13;100.00
70781;BME280;59514;48.810;2.134;2023-04-09T05:57:35;64443.81;;;-141.13;100.00
70781;BME280;59514;48.810;2.134;2023-04-09T06:00:01;64443.81;;;-141.13;100.00
70781;BME280;59514;48.810;2.134;2023-04-09T06:02:27;64443.81;;;-141.13;100.00
70781;BME280;59514;48.810;2.134;2023-04-09T06:04:52;64443.81;;;-141.13;100.00
70781;BME280;59514;48.810;2.134;2023-04-09T06:07:17;64443.81;;;-141.13;100.00
70781;BME280;59514;48.810;2.134;2023-04-09T06:09:42;64443.81;;;-141.13;100.00
70781;BME280;59514;48.810;2.134;2023-04-09T06:12:09;64443.81;;;-141.13;100.00
70781;BME280;59514;48.810;2.134;2023-04-09T06:14:34;64443.81;;;-141.13;100.00
70781;BME280;59514;48.810;2.134;2023-04-09T06:16:59;64443.81;;;-141.13;100.00
70781;BME280;59514;48.810;2.134;2023-04-09T06:19:25;64443.81;;;-141.13;100.00
70781;BME280;59514;48.810;2.134;2023-04-09T06:21:50;64443.81;;;-141.13;100.00
70781;BME280;59514;48.810;2.134;2023-04-09T06:24:15;64443.81;;;-141.13;100.00
70781;BME280;59514;48.810;2.134;2023-04-09T06:26:41;64443.81;;;-141.13;100.00
70781;BME280;59514;48.810;2.134;2023-04-09T06:29:06;64443.81;;;-141.13;100.00
70781;BME280;59514;48.810;2.134;2023-04-09T06:31:31;64443.81;;;-141.13;100.00
70781;BME280;59514;48.810;2.134;2023-04-09T06:33:57;64443.81;;;-141.13;100.00
70781;BME280;59514;48.810;2.134;2023-04-09T06:36:23;64443.81;;;-141.13;100.00
70781;BME280;59514;48.810;2.134;2023-04-09T06:38:48;64443.81;;;-141.13;100.00
70781;BME280;59514;48.810;2.134;2023-04-09T06:41:13;64443.81;;;-141.13;100.00
70781;BME280;59514;48.810;2.134;2023-04-09T06:43:39;64443.81;;;-141.13;100.00
70781;BME280;59514;48.810;2.134;2023-04-09T06:46:05;64443.81;;;-141.13;100.00
70781;BME280;59514;48.810;2.134;2023-04-09T06:48:30;64443.81;;;-141.13;100.00
70781;BME280;59514;48.810;2.134;2023-04-09T06:50:56;64443.81;;;-141.13;100.00
70781;BME280;59514;48.810;2.134;2023-04-09T06:53:21;64443.81;;;-141.13;100.00
70781;BME280;59514;48.810;2.134;2023-04-09T06:55:46;64443.81;;;-141.13;100.00
70781;BME280;59514;48.810;2.134;2023-04-09T06:58:12;64443.81;;;-141.13;100.00
70781;BME280;59514;48.810;2.134;2023-04-09T07:00:37;64443.81;;;-141.13;100.00
70781;BME280;59514;48.810;2.134;2023-04-09T07:03:03;64443.81;;;-141.13;100.00
70781;BME280;59514;48.810;2.134;2023-04-09T07:05:29;64443.81;;;-141.13;100.00
70781;BME280;59514;48.810;2.134;2023-04-09T07:07:55;64443.81;;;-141.13;100.00
70781;BME280;59514;48.810;2.134;2023-04-09T07:10:20;64443.81;;;-141.13;100.00
70781;BME280;59514;48.810;2.134;2023-04-09T07:12:46;64443.81;;;-141.13;100.00
70781;BME280;59514;48.810;2.134;2023-04-09T07:15:11;64443.81;;;-141.13;100.00
70781;BME280;59514;48.810;2.134;2023-04-09T07:17:37;64443.81;;;-141.13;100.00
70781;BME280;59514;48.810;2.134;2023-04-09T07:20:02;64443.81;;;-141.13;100.00
70781;BME280;59514;48.810;2.134;2023-04-09T07:22:28;64443.81;;;-141.13;100.00
70781;BME280;59514;48.810;2.134;2023-04-09T07:24:54;64443.81;;;-141.13;100.00
70781;BME280;59514;48.810;2.134;2023-04-09T07:27:22;64443.81;;;-141.13;100.00
70781;BME280;59514;48.810;2.134;2023-04-09T07:29:47;64443.81;;;-141.13;100.00
70781;BME280;59514;48.810;2.134;2023-04-09T07:32:13;64443.81;;;-141.13;100.00
70781;BME280;59514;48.810;2.134;2023-04-09T07:34:40;64443.81;;;-141.13;100.00
70781;BME280;59514;48.810;2.134;2023-04-09T07:37:05;64443.81;;;-141.13;100.00
70781;BME280;59514;48.810;2.134;2023-04-09T07:39:30;64443.81;;;-141.13;100.00
70781;BME280;59514;48.810;2.134;2023-04-09T07:41:56;64443.81;;;-141.13;100.00
70781;BME280;59514;48.810;2.134;2023-04-09T07:44:21;64443.81;;;-141.13;100.00
70781;BME280;59514;48.810;2.134;2023-04-09T07:46:47;64443.81;;;-141.13;100.00
70781;BME280;59514;48.810;2.134;2023-04-09T07:49:13;64443.81;;;-141.13;100.00
70781;BME280;59514;48.810;2.134;2023-04-09T07:51:38;64443.81;;;-141.13;100.00
70781;BME280;59514;48.810;2.134;2023-04-09T07:54:03;64443.81;;;-141.13;100.00
70781;BME280;59514;48.810;2.134;2023-04-09T07:56:29;64443.81;;;-141.13;100.00
70781;BME280;59514;48.810;2.134;2023-04-09T07:58:54;64443.81;;;-141.13;100.00
70781;BME280;59514;48.810;2.134;2023-04-09T08:01:20;64443.81;;;-141.13;100.00
70781;BME280;59514;48.810;2.134;2023-04-09T08:03:49;64443.81;;;-141.13;100.00
70781;BME280;59514;48.810;2.134;2023-04-09T08:06:14;64443.81;;;-141.13;100.00
70781;BME280;59514;48.810;2.134;2023-04-09T08:08:39;64443.81;;;-141.13;100.00
70781;BME280;59514;48.810;2.134;2023-04-09T08:11:04;64443.81;;;-141.13;100.00
70781;BME280;59514;48.810;2.134;2023-04-09T08:13:31;64443.81;;;-141.13;100.00
70781;BME280;59514;48.810;2.134;2023-04-09T08:15:59;64443.81;;;-141.13;100.00
70781;BME280;59514;48.810;2.134;2023-04-09T08:18:25;64443.81;;;-141.13;100.00
70781;BME280;59514;48.810;2.134;2023-04-09T08:20:50;64443.81;;;-141.13;100.00
70781;BME280;59514;48.810;2.134;2023-04-09T08:23:15;64443.81;;;-141.13;100.00
70781;BME280;59514;48.810;2.134;2023-04-09T08:25:41;64443.81;;;-141.13;100.00
70781;BME280;59514;48.810;2.134;2023-04-09T08:28:06;64443.81;;;-141.13;100.00
70781;BME280;59514;48.810;2.134;2023-04-09T08:30:32;64443.81;;;-141.13;100.00
70781;BME280;59514;48.810;2.134;2023-04-09T08:32:59;64443.81;;;-141.13;100.00
70781;BME280;59514;48.810;2.134;2023-04-09T08:35:25;64443.81;;;-141.13;100.00
70781;BME280;59514;48.810;2.134;2023-04-09T08:37:50;64443.81;;;-141.13;100.00
70781;BME280;59514;48.810;2.134;2023-04-09T08:40:15;64443.81;;;-141.13;100.00
70781;BME280;59514;48.810;2.134;2023-04-09T08:42:43;64443.81;;;-141.13;100.00
70781;BME280;59514;48.810;2.134;2023-04-09T08:45:12;64443.81;;;-141.13;100.00
70781;BME280;59514;48.810;2.134;2023-04-09T08:47:40;64443.81;;;-141.13;100.00
70781;BME280;59514;48.810;2.134;2023-04-09T08:50:06;64443.81;;;-141.13;100.00
70781;BME280;59514;48.810;2.134;2023-04-09T08:52:32;64443.81;;;-141.13;100.00
70781;BME280;59514;48.810;2.134;2023-04-09T08:54:58;64443.81;;;-141.13;100.00
70781;BME280;59514;48.810;2.134;2023-04-09T08:57:24;64443.81;;;-141.13;100.00
70781;BME280;59514;48.810;2.134;2023-04-09T08:59:49;64443.81;;;-141.13;100.00
70781;BME280;59514;48.810;2.134;2023-04-09T09:02:14;64443.81;;;-141.13;100.00
70781;BME280;59514;48.810;2.134;2023-04-09T09:04:47;64443.81;;;-141.13;100.00
70781;BME280;59514;48.810;2.134;2023-04-09T09:07:14;64443.81;;;-141.13;100.00
70781;BME280;59514;48.810;2.134;2023-04-09T09:15:23;64443.81;;;-141.13;100.00
70781;BME280;59514;48.810;2.134;2023-04-09T09:17:55;64443.81;;;-141.13;100.00
70781;BME280;59514;48.810;2.134;2023-04-09T09:20:22;64443.81;;;-141.13;100.00
70781;BME280;59514;48.810;2.134;2023-04-09T09:22:49;64443.81;;;-141.13;100.00
70781;BME280;59514;48.810;2.134;2023-04-09T09:25:15;64443.81;;;-141.13;100.00
70781;BME280;59514;48.810;2.134;2023-04-09T09:27:40;64443.81;;;-141.13;100.00
70781;BME280;59514;48.810;2.134;2023-04-09T09:30:07;64443.81;;;-141.13;100.00
70781;BME280;59514;48.810;2.134;2023-04-09T09:32:35;64443.81;;;-141.13;100.00
70781;BME280;59514;48.810;2.134;2023-04-09T09:35:05;64443.81;;;-141.13;100.00
70781;BME280;59514;48.810;2.134;2023-04-09T09:37:31;64443.81;;;-141.13;100.00
70781;BME280;59514;48.810;2.134;2023-04-09T09:39:57;64443.81;;;-141.13;100.00
70781;BME280;59514;48.810;2.134;2023-04-09T09:42:23;64443.81;;;-141.13;100.00
70781;BME280;59514;48.810;2.134;2023-04-09T09:44:50;64443.81;;;-141.13;100.00
70781;BME280;59514;48.810;2.134;2023-04-09T09:47:17;64443.81;;;-141.13;100.00
70781;BME280;59514;48.810;2.134;2023-04-09T09:49:44;64443.81;;;-141.13;100.00
70781;BME280;59514;48.810;2.134;2023-04-09T09:52:10;64443.81;;;-141.13;100.00
70781;BME280;59514;48.810;2.134;2023-04-09T09:54:40;64443.81;;;-141.13;100.00
70781;BME280;59514;48.810;2.134;2023-04-09T09:57:09;64443.81;;;-141.13;100.00
70781;BME280;59514;48.810;2.134;2023-04-09T09:59:40;64443.81;;;-141.13;100.00
70781;BME280;59514;48.810;2.134;2023-04-09T10:02:17;64443.81;;;-141.13;100.00
70781;BME280;59514;48.810;2.134;2023-04-09T10:04:43;64443.81;;;-141.13;100.00
70781;BME280;59514;48.810;2.134;2023-04-09T10:07:08;64443.81;;;-141.13;100.00
70781;BME280;59514;48.810;2.134;2023-04-09T10:09:36;64443.81;;;-141.13;100.00
70781;BME280;59514;48.810;2.134;2023-04-09T10:12:03;64443.81;;;-141.13;100.00
70781;BME280;59514;48.810;2.134;2023-04-09T10:14:30;64443.81;;;-141.13;100.00
70781;BME280;59514;48.810;2.134;2023-04-09T10:16:57;64443.81;;;-141.13;100.00
70781;BME280;59514;48.810;2.134;2023-04-09T10:19:22;64443.81;;;-141.13;100.00
70781;BME280;59514;48.810;2.134;2023-04-09T10:22:10;64443.81;;;-141.13;100.00
70781;BME280;59514;48.810;2.134;2023-04-09T10:24:37;64443.81;;;-141.13;100.00
70781;BME280;59514;48.810;2.134;2023-04-09T10:27:13;64443.81;;;-141.13;100.00
70781;BME280;59514;48.810;2.134;2023-04-09T10:29:47;64443.81;;;-141.13;100.00
70781;BME280;59514;48.810;2.134;2023-04-09T10:32:22;64443.81;;;-141.13;100.00
70781;BME280;59514;48.810;2.134;2023-04-09T10:34:51;64443.81;;;-141.13;100.00
70781;BME280;59514;48.810;2.134;2023-04-09T10:37:24;64443.81;;;-141.13;100.00
70781;BME280;59514;48.810;2.134;2023-04-09T10:39:50;64443.81;;;-141.13;100.00
70781;BME280;59514;48.810;2.134;2023-04-09T10:42:38;64443.81;;;-141.13;100.00
70781;BME280;59514;48.810;2.134;2023-04-09T10:45:12;64443.81;;;-141.13;100.00
70781;BME280;59514;48.810;2.134;2023-04-09T10:47:40;64443.81;;;-141.13;100.00
70781;BME280;59514;48.810;2.134;2023-04-09T10:52:44;64443.81;;;-141.13;100.00
70781;BME280;59514;48.810;2.134;2023-04-09T10:55:29;64443.81;;;-141.13;100.00
70781;BME280;59514;48.810;2.134;2023-04-09T10:57:55;64443.81;;;-141.13;100.00
70781;BME280;59514;48.810;2.134;2023-04-09T11:00:20;64443.81;;;-141.13;100.00
70781;BME280;59514;48.810;2.134;2023-04-09T11:05:34;64443.81;;;-141.13;100.00
70781;BME280;59514;48.810;2.134;2023-04-09T11:10:34;64443.81;;;-141.13;100.00
70781;BME280;59514;48.810;2.134;2023-04-09T11:13:00;64443.81;;;-141.13;100.00
70781;BME280;59514;48.810;2.134;2023-04-09T11:15:26;64443.81;;;-141.13;100.00
70781;BME280;59514;48.810;2.134;2023-04-09T11:17:52;64443.81;;;-141.13;100.00
70781;BME280;59514;48.810;2.134;2023-04-09T11:20:22;64443.81;;;-141.13;100.00
70781;BME280;59514;48.810;2.134;2023-04-09T11:22:49;64443.81;;;-141.13;100.00
70781;BME280;59514;48.810;2.134;2023-04-09T11:25:25;64443.81;;;-141.13;100.00
70781;BME280;59514;48.810;2.134;2023-04-09T11:27:52;64443.81;;;-141.13;100.00
70781;BME280;59514;48.810;2.134;2023-04-09T11:30:18;64443.81;;;-141.13;100.00
70781;BME280;59514;48.810;2.134;2023-04-09T11:32:44;64443.81;;;-141.13;100.00
70781;BME280;59514;48.810;2.134;2023-04-09T11:35:17;64443.81;;;-141.13;100.00
70781;BME280;59514;48.810;2.134;2023-04-09T11:37:43;64443.81;;;-141.13;100.00
70781;BME280;59514;48.810;2.134;2023-04-09T11:40:41;64443.81;;;-141.13;100.00
70781;BME280;59514;48.810;2.134;2023-04-09T11:43:13;64443.81;;;-141.13;100.00
70781;BME280;59514;48.810;2.134;2023-04-09T11:45:40;64443.81;;;-141.13;100.00
70781;BME280;59514;48.810;2.134;2023-04-09T11:48:06;64443.81;;;-141.13;100.00
70781;BME280;59514;48.810;2.134;2023-04-09T11:50:31;64443.81;;;-141.13;100.00
70781;BME280;59514;48.810;2.134;2023-04-09T11:52:57;64443.81;;;-141.13;100.00
70781;BME280;59514;48.810;2.134;2023-04-09T11:55:24;64443.81;;;-141.13;100.00
70781;BME280;59514;48.810;2.134;2023-04-09T11:58:00;64443.81;;;-141.13;100.00
70781;BME280;59514;48.810;2.134;2023-04-09T12:00:27;64443.81;;;-141.13;100.00
70781;BME280;59514;48.810;2.134;2023-04-09T12:03:03;64443.81;;;-141.13;100.00
70781;BME280;59514;48.810;2.134;2023-04-09T12:05:30;64443.81;;;-141.13;100.00
70781;BME280;59514;48.810;2.134;2023-04-09T12:08:01;64443.81;;;-141.13;100.00
70781;BME280;59514;48.810;2.134;2023-04-09T12:10:31;64443.81;;;-141.13;100.00
70781;BME280;59514;48.810;2.134;2023-04-09T12:13:01;64443.81;;;-141.13;100.00
70781;BME280;59514;48.810;2.134;2023-04-09T12:15:30;64443.81;;;-141.13;100.00
70781;BME280;59514;48.810;2.134;2023-04-09T12:17:56;64443.81;;;-141.13;100.00
70781;BME280;59514;48.810;2.134;2023-04-09T12:23:02;64443.81;;;-141.13;100.00
70781;BME280;59514;48.810;2.134;2023-04-09T12:25:34;64443.81;;;-141.13;100.00
70781;BME280;59514;48.810;2.134;2023-04-09T12:28:00;64443.81;;;-141.13;100.00
70781;BME280;59514;48.810;2.134;2023-04-09T12:30:26;64443.81;;;-141.13;100.00
70781;BME280;59514;48.810;2.134;2023-04-09T12:32:52;64443.81;;;-141.13;100.00
70781;BME280;59514;48.810;2.134;2023-04-09T12:35:18;64443.81;;;-141.13;100.00
70781;BME280;59514;48.810;2.134;2023-04-09T12:37:44;64443.81;;;-141.13;100.00
70781;BME280;59514;48.810;2.134;2023-04-09T12:40:09;64443.81;;;-141.13;100.00
70781;BME280;59514;48.810;2.134;2023-04-09T12:42:38;64443.81;;;-141.13;100.00
70781;BME280;59514;48.810;2.134;2023-04-09T12:45:04;64443.81;;;-141.13;100.00
70781;BME280;59514;48.810;2.134;2023-04-09T12:47:30;64443.81;;;-141.13;100.00
70781;BME280;59514;48.810;2.134;2023-04-09T12:49:55;64443.81;;;-141.13;100.00
70781;BME280;59514;48.810;2.134;2023-04-09T12:52:21;64443.81;;;-141.13;100.00